createdAt,value
2022-11-29T00:01:42.488Z,20.80
2022-11-29T00:04:11.370Z,19.33
2022-11-29T00:06:40.087Z,21.73
2022-11-29T00:09:11.681Z,20.93
2022-11-29T00:11:58.952Z,23.60
2022-11-29T00:14:29.115Z,22.97
2022-11-29T00:17:02.664Z,22.70
2022-11-29T00:19:32.389Z,21.10
2022-11-29T00:22:01.652Z,24.40
2022-11-29T00:24:31.733Z,22.53
2022-11-29T00:27:00.487Z,22.77
2022-11-29T00:29:30.053Z,27.37
2022-11-29T00:31:58.521Z,21.30
2022-11-29T00:34:26.897Z,21.03
2022-11-29T00:36:54.961Z,21.23
2022-11-29T00:39:23.125Z,24.60
2022-11-29T00:41:51.288Z,23.43
2022-11-29T00:44:20.688Z,24.33
2022-11-29T00:46:50.238Z,25.20
2022-11-29T00:49:18.908Z,23.07
2022-11-29T00:51:47.846Z,23.13
2022-11-29T00:54:16.351Z,26.73
2022-11-29T00:56:45.142Z,24.33
2022-11-29T00:59:13.626Z,22.30
2022-11-29T01:01:42.130Z,25.90
2022-11-29T01:04:10.227Z,25.80
2022-11-29T01:06:38.713Z,26.30
2022-11-29T01:09:07.330Z,23.00
2022-11-29T01:11:35.685Z,24.83
2022-11-29T01:14:04.428Z,23.33
2022-11-29T01:16:33.720Z,23.73
2022-11-29T01:19:02.585Z,23.10
2022-11-29T01:21:31.376Z,23.07
2022-11-29T01:24:00.575Z,24.97
2022-11-29T01:26:31.648Z,22.83
2022-11-29T01:29:00.422Z,22.57
2022-11-29T01:31:36.292Z,24.37
2022-11-29T01:34:07.054Z,23.40
2022-11-29T01:36:36.097Z,22.60
2022-11-29T01:39:06.852Z,29.43
2022-11-29T01:41:38.061Z,22.80
2022-11-29T01:44:14.917Z,24.30
2022-11-29T01:46:46.838Z,25.53
2022-11-29T01:49:23.812Z,23.70
2022-11-29T01:52:09.883Z,25.10
2022-11-29T01:54:43.693Z,22.40
2022-11-29T01:57:12.402Z,24.60
2022-11-29T01:59:45.793Z,23.90
2022-11-29T02:02:37.336Z,21.73
2022-11-29T02:05:06.459Z,21.67
2022-11-29T02:07:34.986Z,26.67
2022-11-29T02:10:03.642Z,21.53
2022-11-29T02:13:34.421Z,23.60
2022-11-29T02:16:58.152Z,25.00
2022-11-29T02:19:56.077Z,24.03
2022-11-29T02:22:58.978Z,21.40
2022-11-29T02:26:26.964Z,25.50
2022-11-29T02:29:44.259Z,19.53
2022-11-29T02:32:41.449Z,23.83
2022-11-29T02:35:45.423Z,22.03
2022-11-29T02:38:49.356Z,20.33
2022-11-29T02:41:26.165Z,21.43
2022-11-29T02:44:15.253Z,20.57
2022-11-29T02:46:55.883Z,21.10
2022-11-29T02:49:45.108Z,21.00
2022-11-29T02:52:36.514Z,22.40
2022-11-29T02:55:46.579Z,24.77
2022-11-29T02:59:02.515Z,24.40
2022-11-29T03:01:43.029Z,24.90
2022-11-29T03:04:30.030Z,22.73
2022-11-29T03:07:29.300Z,21.47
2022-11-29T03:10:32.238Z,22.07
2022-11-29T03:13:01.119Z,19.83
2022-11-29T03:15:46.354Z,21.93
2022-11-29T03:18:50.866Z,21.00
2022-11-29T03:21:36.751Z,22.80
2022-11-29T03:24:25.095Z,23.57
2022-11-29T03:27:09.722Z,22.00
2022-11-29T03:29:46.936Z,22.37
2022-11-29T03:32:47.436Z,20.67
2022-11-29T03:36:09.098Z,23.23
2022-11-29T03:38:43.516Z,23.07
2022-11-29T03:41:16.632Z,21.03
2022-11-29T03:43:45.050Z,20.07
2022-11-29T03:47:02.572Z,21.80
2022-11-29T03:50:07.615Z,20.93
2022-11-29T03:53:06.011Z,24.27
2022-11-29T03:55:47.368Z,22.37
2022-11-29T03:59:13.328Z,22.73
2022-11-29T04:02:08.636Z,23.83
2022-11-29T04:05:10.595Z,20.87
2022-11-29T04:07:52.166Z,20.13
2022-11-29T04:10:50.279Z,22.27
2022-11-29T04:13:34.308Z,23.77
2022-11-29T04:16:47.365Z,23.87
2022-11-29T04:19:33.859Z,23.07
2022-11-29T04:22:39.392Z,20.17
2022-11-29T04:26:04.329Z,21.60
2022-11-29T04:29:14.116Z,22.87
2022-11-29T04:32:15.528Z,21.87
2022-11-29T04:35:01.151Z,22.57
2022-11-29T04:37:47.067Z,22.27
2022-11-29T04:41:11.422Z,23.73
2022-11-29T04:44:17.387Z,23.37
2022-11-29T04:47:00.146Z,24.30
2022-11-29T04:49:56.651Z,24.57
2022-11-29T04:52:38.205Z,20.27
2022-11-29T04:55:34.947Z,21.63
2022-11-29T04:58:26.117Z,21.47
2022-11-29T05:01:05.978Z,22.93
2022-11-29T05:04:08.480Z,22.87
2022-11-29T05:07:01.174Z,21.83
2022-11-29T05:10:06.545Z,23.17
2022-11-29T05:13:12.154Z,18.57
2022-11-29T05:15:55.539Z,22.30
2022-11-29T05:18:45.370Z,20.33
2022-11-29T05:21:43.858Z,19.40
2022-11-29T05:24:51.206Z,23.30
2022-11-29T05:27:51.427Z,19.20
2022-11-29T05:30:23.317Z,22.40
2022-11-29T05:33:06.523Z,19.80
2022-11-29T05:35:37.661Z,20.47
2022-11-29T05:38:10.075Z,20.60
2022-11-29T05:41:12.936Z,22.93
2022-11-29T05:44:14.179Z,20.23
2022-11-29T05:47:03.635Z,21.83
2022-11-29T05:50:00.603Z,22.90
2022-11-29T05:53:18.603Z,21.63
2022-11-29T05:56:01.937Z,21.23
2022-11-29T05:59:18.222Z,22.50
2022-11-29T06:02:02.041Z,18.20
2022-11-29T06:05:15.672Z,19.73
2022-11-29T06:07:52.889Z,20.27
2022-11-29T06:10:26.328Z,20.37
2022-11-29T06:13:31.975Z,24.67
2022-11-29T06:16:35.387Z,20.97
2022-11-29T06:19:43.555Z,18.87
2022-11-29T06:22:32.736Z,20.07
2022-11-29T06:25:49.478Z,18.30
2022-11-29T06:28:42.270Z,20.10
2022-11-29T06:31:29.883Z,21.47
2022-11-29T06:34:11.906Z,21.07
2022-11-29T06:36:58.688Z,17.70
2022-11-29T06:39:27.388Z,21.00
2022-11-29T06:41:55.818Z,20.13
2022-11-29T06:44:24.273Z,18.00
2022-11-29T06:47:33.159Z,20.50
2022-11-29T06:50:22.894Z,21.33
2022-11-29T06:53:00.966Z,20.33
2022-11-29T06:55:33.077Z,19.40
2022-11-29T06:58:36.386Z,23.27
2022-11-29T07:01:18.451Z,20.33
2022-11-29T07:03:54.388Z,17.97
2022-11-29T07:06:27.187Z,19.20
2022-11-29T07:09:02.656Z,20.10
2022-11-29T07:11:31.363Z,18.13
2022-11-29T07:13:59.696Z,18.23
2022-11-29T07:16:35.027Z,19.63
2022-11-29T07:19:22.027Z,19.37
2022-11-29T07:22:05.858Z,19.00
2022-11-29T07:24:55.587Z,19.47
2022-11-29T07:27:57.244Z,19.10
2022-11-29T07:30:57.533Z,18.33
2022-11-29T07:33:45.468Z,21.53
2022-11-29T07:37:20.931Z,20.27
2022-11-29T07:40:12.736Z,18.77
2022-11-29T07:43:16.585Z,18.60
2022-11-29T07:45:45.865Z,16.30
2022-11-29T07:48:14.623Z,17.70
2022-11-29T07:50:42.773Z,17.10
2022-11-29T07:53:22.410Z,17.83
2022-11-29T07:55:51.513Z,17.63
2022-11-29T07:58:20.196Z,18.87
2022-11-29T08:00:48.731Z,17.83
2022-11-29T08:03:16.820Z,15.73
2022-11-29T08:05:48.368Z,17.57
2022-11-29T08:08:17.203Z,19.20
2022-11-29T08:10:45.270Z,16.53
2022-11-29T08:13:13.538Z,18.13
2022-11-29T08:15:48.914Z,18.67
2022-11-29T08:18:17.645Z,16.60
2022-11-29T08:20:46.379Z,16.77
2022-11-29T08:23:16.635Z,14.23
2022-11-29T08:25:45.883Z,16.00
2022-11-29T08:28:14.714Z,17.13
2022-11-29T08:30:42.782Z,18.77
2022-11-29T08:33:11.271Z,20.20
2022-11-29T08:35:39.940Z,18.30
2022-11-29T08:38:08.373Z,18.73
2022-11-29T08:40:36.899Z,16.93
2022-11-29T08:43:05.406Z,15.93
2022-11-29T08:45:33.991Z,16.13
2022-11-29T08:48:02.895Z,15.27
2022-11-29T08:50:31.376Z,17.43
2022-11-29T08:53:17.559Z,19.17
2022-11-29T08:55:46.731Z,16.10
2022-11-29T08:58:16.942Z,16.67
2022-11-29T09:00:47.394Z,16.03
2022-11-29T09:03:33.425Z,16.63
2022-11-29T09:06:14.328Z,15.07
2022-11-29T09:08:44.117Z,17.30
2022-11-29T09:11:22.210Z,15.23
2022-11-29T09:13:54.150Z,17.80
2022-11-29T09:16:26.844Z,17.77
2022-11-29T09:18:56.077Z,15.50
2022-11-29T09:21:29.258Z,15.17
2022-11-29T09:24:00.329Z,18.50
2022-11-29T09:26:31.472Z,19.70
2022-11-29T09:29:05.133Z,17.70
2022-11-29T09:31:34.591Z,17.23
2022-11-29T09:34:03.237Z,17.07
2022-11-29T09:36:32.323Z,19.67
2022-11-29T09:39:03.402Z,16.60
2022-11-29T09:42:06.609Z,18.37
2022-11-29T09:44:40.933Z,15.40
2022-11-29T09:47:19.609Z,16.67
2022-11-29T09:50:25.645Z,17.43
2022-11-29T09:53:17.511Z,15.60
2022-11-29T09:55:58.667Z,16.73
2022-11-29T09:58:33.311Z,13.97
2022-11-29T10:01:09.950Z,14.90
2022-11-29T10:03:44.761Z,15.10
2022-11-29T10:06:22.789Z,15.37
2022-11-29T10:09:18.550Z,14.63
2022-11-29T10:12:24.840Z,14.37
2022-11-29T10:15:22.128Z,16.17
2022-11-29T10:18:06.152Z,15.63
2022-11-29T10:20:43.567Z,16.20
2022-11-29T10:23:14.418Z,14.50
2022-11-29T10:25:55.311Z,17.23
2022-11-29T10:28:31.264Z,15.73
2022-11-29T10:31:19.543Z,15.03
2022-11-29T10:33:48.366Z,16.10
2022-11-29T10:36:36.053Z,14.00
2022-11-29T10:39:18.456Z,14.43
2022-11-29T10:41:46.881Z,15.67
2022-11-29T10:44:16.277Z,18.50
2022-11-29T10:46:44.776Z,15.93
2022-11-29T10:49:19.311Z,14.67
2022-11-29T10:51:48.182Z,15.27
2022-11-29T10:54:43.174Z,16.60
2022-11-29T10:57:21.968Z,14.87
2022-11-29T11:00:12.612Z,14.97
2022-11-29T11:02:41.644Z,14.57
2022-11-29T11:05:18.729Z,13.30
2022-11-29T11:07:47.518Z,14.83
2022-11-29T11:10:29.523Z,14.10
2022-11-29T11:13:21.387Z,15.53
2022-11-29T11:15:49.795Z,13.80
2022-11-29T11:18:24.459Z,12.07
2022-11-29T11:21:01.991Z,13.57
2022-11-29T11:23:42.404Z,15.00
2022-11-29T11:26:14.863Z,13.43
2022-11-29T11:28:59.703Z,12.50
2022-11-29T11:31:41.495Z,13.40
2022-11-29T11:34:37.470Z,16.30
2022-11-29T11:37:23.521Z,13.07
2022-11-29T11:39:57.051Z,13.10
2022-11-29T11:42:39.589Z,14.47
2022-11-29T11:45:13.703Z,13.03
2022-11-29T11:47:55.311Z,13.07
2022-11-29T11:50:51.847Z,13.90
2022-11-29T11:53:28.973Z,12.70
2022-11-29T11:56:09.636Z,12.07
2022-11-29T11:58:59.147Z,13.73
2022-11-29T12:01:37.316Z,13.47
2022-11-29T12:04:20.724Z,13.03
2022-11-29T12:06:52.669Z,11.70
2022-11-29T12:09:49.078Z,15.13
2022-11-29T12:12:29.937Z,10.87
2022-11-29T12:15:08.887Z,12.30
2022-11-29T12:18:03.558Z,12.93
2022-11-29T12:20:43.360Z,13.03
2022-11-29T12:23:14.404Z,13.30
2022-11-29T12:25:53.456Z,13.63
2022-11-29T12:28:23.759Z,12.67
2022-11-29T12:31:13.470Z,14.20
2022-11-29T12:34:12.328Z,13.33
2022-11-29T12:37:18.381Z,12.47
2022-11-29T12:40:06.332Z,12.60
2022-11-29T12:42:53.884Z,10.67
2022-11-29T12:46:25.211Z,12.17
2022-11-29T12:49:02.129Z,14.13
2022-11-29T12:52:15.120Z,14.47
2022-11-29T12:55:17.003Z,11.57
2022-11-29T12:58:06.259Z,11.93
2022-11-29T13:00:54.237Z,13.73
2022-11-29T13:03:46.199Z,12.77
2022-11-29T13:06:44.966Z,14.40
2022-11-29T13:09:28.402Z,13.00
2022-11-29T13:12:18.380Z,14.13
2022-11-29T13:15:10.168Z,13.07
2022-11-29T13:17:58.865Z,13.07
2022-11-29T13:20:32.097Z,13.07
2022-11-29T13:24:07.362Z,12.20
2022-11-29T13:26:30.549Z,13.57
2022-11-29T13:28:59.450Z,13.23
2022-11-29T13:31:27.930Z,13.77
2022-11-29T13:34:17.346Z,13.20
2022-11-29T13:37:20.132Z,13.20
2022-11-29T13:40:00.521Z,13.23
2022-11-29T13:42:59.187Z,12.47
2022-11-29T13:45:42.474Z,15.17
2022-11-29T13:48:50.187Z,14.97
2022-11-29T13:51:44.689Z,14.90
2022-11-29T13:54:33.457Z,15.50
2022-11-29T13:57:08.943Z,13.27
2022-11-29T13:59:47.308Z,12.80
2022-11-29T14:02:31.948Z,13.43
2022-11-29T14:05:00.493Z,13.83
2022-11-29T14:07:29.020Z,13.67
2022-11-29T14:10:07.519Z,14.33
2022-11-29T14:12:50.985Z,13.73
2022-11-29T14:15:32.045Z,14.63
2022-11-29T14:18:08.999Z,14.83
2022-11-29T14:20:56.513Z,12.83
2022-11-29T14:23:44.174Z,17.67
2022-11-29T14:26:12.628Z,12.83
2022-11-29T14:28:41.865Z,13.60
2022-11-29T14:31:11.506Z,13.70
2022-11-29T14:33:48.334Z,14.70
2022-11-29T14:36:17.653Z,13.73
2022-11-29T14:39:15.571Z,12.93
2022-11-29T14:41:56.994Z,12.47
2022-11-29T14:44:29.088Z,13.67
2022-11-29T14:47:29.975Z,17.40
2022-11-29T14:50:01.610Z,12.83
2022-11-29T14:52:54.282Z,12.43
2022-11-29T14:55:22.711Z,13.23
2022-11-29T14:58:03.676Z,12.53
2022-11-29T15:00:44.739Z,13.70
2022-11-29T15:03:18.124Z,11.93
2022-11-29T15:06:09.001Z,12.67
2022-11-29T15:09:04.693Z,11.37
2022-11-29T15:11:42.426Z,12.70
2022-11-29T15:14:31.586Z,11.90
2022-11-29T15:17:53.352Z,11.60
2022-11-29T15:20:39.643Z,11.97
2022-11-29T15:23:16.191Z,11.60
2022-11-29T15:25:53.236Z,13.13
2022-11-29T15:28:30.598Z,11.97
2022-11-29T15:31:09.191Z,13.43
2022-11-29T15:33:42.199Z,13.07
2022-11-29T15:36:19.960Z,13.10
2022-11-29T15:38:53.660Z,12.30
2022-11-29T15:41:35.661Z,16.47
2022-11-29T15:44:07.412Z,13.60
2022-11-29T15:46:37.024Z,13.13
2022-11-29T15:49:28.173Z,12.60
2022-11-29T15:52:05.623Z,13.10
2022-11-29T15:54:42.063Z,12.20
2022-11-29T15:57:33.170Z,13.90
2022-11-29T16:00:27.494Z,15.80
2022-11-29T16:03:01.966Z,14.00
2022-11-29T16:05:38.960Z,11.23
2022-11-29T16:08:18.829Z,14.40
2022-11-29T16:10:53.313Z,14.13
2022-11-29T16:13:31.170Z,12.77
2022-11-29T16:16:21.598Z,14.17
2022-11-29T16:18:52.070Z,12.37
2022-11-29T16:21:33.553Z,14.83
2022-11-29T16:24:21.855Z,14.17
2022-11-29T16:26:51.802Z,13.07
2022-11-29T16:29:32.682Z,13.33
2022-11-29T16:32:01.791Z,13.57
2022-11-29T16:34:33.828Z,12.60
2022-11-29T16:37:17.592Z,12.30
2022-11-29T16:39:50.099Z,14.10
2022-11-29T16:42:26.059Z,14.57
2022-11-29T16:45:05.375Z,16.80
2022-11-29T16:47:58.038Z,13.30
2022-11-29T16:50:33.491Z,14.77
2022-11-29T16:53:39.542Z,14.40
2022-11-29T16:56:14.534Z,14.53
2022-11-29T16:59:17.322Z,13.77
2022-11-29T17:01:33.594Z,12.00
2022-11-29T17:04:02.160Z,14.07
2022-11-29T17:06:31.320Z,11.93
2022-11-29T17:09:00.768Z,11.67
2022-11-29T17:11:29.288Z,11.83
2022-11-29T17:13:57.501Z,12.47
2022-11-29T17:16:26.267Z,11.93
2022-11-29T17:18:54.831Z,11.83
2022-11-29T17:21:29.545Z,12.23
2022-11-29T17:23:58.388Z,12.67
2022-11-29T17:26:26.864Z,14.70
2022-11-29T17:28:55.439Z,12.17
2022-11-29T17:31:25.908Z,12.43
2022-11-29T17:33:54.217Z,13.20
2022-11-29T17:36:22.836Z,12.63
2022-11-29T17:38:50.921Z,13.23
2022-11-29T17:41:23.051Z,14.13
2022-11-29T17:43:56.726Z,13.57
2022-11-29T17:46:37.027Z,13.77
2022-11-29T17:49:10.014Z,12.90
2022-11-29T17:51:55.469Z,11.50
2022-11-29T17:54:24.428Z,14.97
2022-11-29T17:56:53.164Z,13.57
2022-11-29T17:59:21.940Z,14.43
2022-11-29T18:01:50.562Z,12.07
2022-11-29T18:04:19.251Z,12.13
2022-11-29T18:06:50.188Z,14.10
2022-11-29T18:09:20.209Z,13.00
2022-11-29T18:11:50.639Z,12.00
2022-11-29T18:14:24.176Z,14.37
2022-11-29T18:16:53.300Z,12.90
2022-11-29T18:19:23.852Z,14.93
2022-11-29T18:21:52.462Z,13.97
2022-11-29T18:24:20.978Z,15.23
2022-11-29T18:26:49.620Z,14.13
2022-11-29T18:29:18.155Z,12.40
2022-11-29T18:31:47.674Z,14.70
2022-11-29T18:34:16.178Z,14.73
2022-11-29T18:36:49.571Z,13.10
2022-11-29T18:39:23.613Z,15.43
2022-11-29T18:41:52.447Z,15.03
2022-11-29T18:44:24.256Z,15.83
2022-11-29T18:46:52.338Z,14.43
2022-11-29T18:49:20.836Z,17.20
2022-11-29T18:51:50.979Z,14.00
2022-11-29T18:54:20.648Z,12.57
2022-11-29T18:56:51.863Z,13.67
2022-11-29T18:59:21.989Z,13.83
2022-11-29T19:01:50.695Z,12.87
2022-11-29T19:04:21.407Z,12.37
2022-11-29T19:06:50.442Z,12.27
2022-11-29T19:09:23.422Z,13.40
2022-11-29T19:11:52.104Z,13.03
2022-11-29T19:14:22.197Z,11.03
2022-11-29T19:16:51.138Z,11.13
2022-11-29T19:19:20.112Z,12.47
2022-11-29T19:21:52.004Z,10.73
2022-11-29T19:24:21.169Z,13.57
2022-11-29T19:26:49.690Z,12.27
2022-11-29T19:29:18.495Z,12.03
2022-11-29T19:31:47.038Z,15.27
2022-11-29T19:34:15.511Z,12.30
2022-11-29T19:36:45.333Z,12.10
2022-11-29T19:39:18.626Z,11.93
2022-11-29T19:41:48.812Z,11.60
2022-11-29T19:44:17.450Z,12.03
2022-11-29T19:46:49.542Z,12.17
2022-11-29T19:49:18.075Z,11.80
2022-11-29T19:51:46.872Z,13.07
2022-11-29T19:54:15.633Z,14.00
2022-11-29T19:56:44.327Z,15.00
2022-11-29T19:59:12.790Z,13.30
2022-11-29T20:01:42.571Z,15.40
2022-11-29T20:04:13.577Z,11.73
2022-11-29T20:06:42.270Z,12.23
2022-11-29T20:09:11.108Z,12.70
2022-11-29T20:11:39.661Z,13.27
2022-11-29T20:14:09.276Z,12.00
2022-11-29T20:16:39.160Z,10.90
2022-11-29T20:19:17.238Z,14.17
2022-11-29T20:21:48.922Z,11.87
2022-11-29T20:24:17.905Z,11.00
2022-11-29T20:26:48.467Z,11.03
2022-11-29T20:29:17.568Z,11.67
2022-11-29T20:31:50.716Z,15.10
2022-11-29T20:34:20.607Z,11.30
2022-11-29T20:37:17.993Z,13.07
2022-11-29T20:40:00.889Z,10.93
2022-11-29T20:42:50.394Z,12.30
2022-11-29T20:45:19.358Z,12.70
2022-11-29T20:47:52.316Z,12.80
2022-11-29T20:50:25.034Z,13.20
2022-11-29T20:53:08.800Z,13.37
2022-11-29T20:55:42.474Z,12.70
2022-11-29T20:58:14.991Z,13.03
2022-11-29T21:00:43.270Z,13.07
2022-11-29T21:03:18.557Z,12.13
2022-11-29T21:05:47.340Z,13.80
2022-11-29T21:08:17.638Z,13.37
2022-11-29T21:10:46.554Z,13.80
2022-11-29T21:13:16.811Z,11.33
2022-11-29T21:15:45.743Z,14.67
2022-11-29T21:18:29.114Z,12.77
2022-11-29T21:21:07.529Z,13.67
2022-11-29T21:24:09.127Z,13.27
2022-11-29T21:26:43.042Z,12.70
2022-11-29T21:29:11.411Z,13.73
2022-11-29T21:31:40.092Z,12.90
2022-11-29T21:34:08.726Z,13.87
2022-11-29T21:36:38.099Z,12.70
2022-11-29T21:39:08.191Z,14.83
2022-11-29T21:41:36.383Z,14.83
2022-11-29T21:44:06.994Z,15.47
2022-11-29T21:46:36.344Z,15.93
2022-11-29T21:49:05.449Z,15.20
2022-11-29T21:51:34.543Z,15.87
2022-11-29T21:54:03.323Z,15.97
2022-11-29T21:56:31.741Z,15.40
2022-11-29T21:58:59.874Z,15.97
2022-11-29T22:01:29.283Z,14.03
2022-11-29T22:03:57.931Z,15.50
2022-11-29T22:06:26.388Z,16.43
2022-11-29T22:08:54.853Z,13.97
2022-11-29T22:11:31.817Z,13.03
2022-11-29T22:14:15.144Z,13.73
2022-11-29T22:16:54.606Z,14.00
2022-11-29T22:19:26.705Z,15.00
2022-11-29T22:22:04.082Z,14.13
2022-11-29T22:24:35.457Z,13.60
2022-11-29T22:27:04.079Z,14.33
2022-11-29T22:29:32.592Z,13.80
2022-11-29T22:32:01.565Z,12.27
2022-11-29T22:34:32.889Z,13.60
2022-11-29T22:37:01.580Z,13.97
2022-11-29T22:39:30.135Z,13.93
2022-11-29T22:41:58.576Z,13.77
2022-11-29T22:44:27.276Z,13.93
2022-11-29T22:46:55.693Z,12.80
2022-11-29T22:49:24.152Z,12.60
2022-11-29T22:51:52.623Z,12.73
2022-11-29T22:54:23.090Z,13.30
2022-11-29T22:56:52.319Z,13.07
2022-11-29T22:59:20.740Z,13.70
2022-11-29T23:01:49.371Z,13.23
2022-11-29T23:04:17.859Z,13.50
2022-11-29T23:06:47.430Z,12.80
2022-11-29T23:09:21.702Z,13.23
2022-11-29T23:11:56.114Z,13.37
2022-11-29T23:14:24.676Z,13.03
2022-11-29T23:16:54.829Z,13.37
2022-11-29T23:19:22.932Z,13.40
2022-11-29T23:21:51.989Z,13.50
2022-11-29T23:24:22.458Z,12.53
2022-11-29T23:26:50.535Z,13.77
2022-11-29T23:29:20.539Z,16.47
2022-11-29T23:31:49.730Z,12.23
2022-11-29T23:34:18.244Z,12.47
2022-11-29T23:36:52.433Z,13.80
2022-11-29T23:39:21.396Z,14.20
2022-11-29T23:41:49.747Z,13.60
2022-11-29T23:44:17.733Z,13.87
2022-11-29T23:46:46.531Z,12.73
2022-11-29T23:49:15.144Z,13.53
2022-11-29T23:51:43.518Z,15.87
2022-11-29T23:54:12.062Z,13.33
2022-11-29T23:56:40.492Z,12.77
2022-11-29T23:59:09.102Z,12.07
